Time;durP1;ratioP1;P1;durP2;ratioP2;P2;SDS_P1;SDS_P2;PMS_P1;PMS_P2;Temp;Humidity;BMP_temperature;BMP_pressure;BME280_temperature;BME280_humidity;BME280_pressure;Samples;Min_cycle;Max_cycle;Signal;HPM_P1;HPM_P2
2022/04/25 00:01:31;;;;;;;8.18;3.47;;;;;;;6.79;66.14;100135.75;5025114;28;20049;-44
2022/04/25 00:03:58;;;;;;;7.28;3.53;;;;;;;6.79;66.54;100134.91;5022128;28;20050;-44
2022/04/25 00:06:25;;;;;;;10.75;3.97;;;;;;;6.80;66.29;100141.78;5030255;28;20499;-42
2022/04/25 00:08:51;;;;;;;16.38;3.75;;;;;;;6.78;65.54;100138.28;5026975;28;20038;-43
2022/04/25 00:11:18;;;;;;;12.45;3.53;;;;;;;6.78;65.71;100133.16;5024045;28;20103;-45
2022/04/25 00:13:45;;;;;;;8.05;3.15;;;;;;;6.79;64.79;100134.91;5026838;28;20046;-45
2022/04/25 00:16:11;;;;;;;8.63;3.42;;;;;;;6.79;66.21;100138.31;5026283;28;20095;-42
2022/04/25 00:18:38;;;;;;;8.80;3.28;;;;;;;6.79;64.91;100146.03;5026973;28;20064;-42
2022/04/25 00:21:05;;;;;;;11.27;3.85;;;;;;;6.80;66.44;100139.19;5025364;28;20045;-42
2022/04/25 00:23:32;;;;;;;12.68;3.33;;;;;;;6.82;66.44;100135.78;5023539;28;20057;-43
2022/04/25 00:25:59;;;;;;;9.02;3.47;;;;;;;6.84;65.03;100143.53;5025369;28;20053;-43
2022/04/25 00:28:25;;;;;;;10.80;3.00;;;;;;;6.86;65.37;100136.69;5025488;28;20135;-42
2022/04/25 00:30:52;;;;;;;7.20;3.85;;;;;;;6.88;65.96;100137.59;5023194;28;20049;-46
2022/04/25 00:33:19;;;;;;;11.27;3.42;;;;;;;6.91;65.59;100137.63;5028602;28;20057;-45
2022/04/25 00:35:45;;;;;;;10.32;3.20;;;;;;;6.90;66.13;100133.34;5024868;28;20111;-45
2022/04/25 00:38:12;;;;;;;9.30;3.08;;;;;;;6.93;66.13;100125.63;5025570;28;20054;-41
2022/04/25 00:40:40;;;;;;;10.82;3.97;;;;;;;6.97;66.71;100123.09;5026707;28;20103;-49
2022/04/25 00:43:06;;;;;;;6.90;2.90;;;;;;;7.00;66.88;100123.16;5025832;28;20543;-44
2022/04/25 00:45:33;;;;;;;9.18;3.03;;;;;;;7.03;65.74;100118.06;5021511;28;20060;-43
2022/04/25 00:48:00;;;;;;;7.35;3.25;;;;;;;7.07;66.68;100122.41;5026691;28;20080;-43
2022/04/25 00:50:28;;;;;;;10.43;3.47;;;;;;;7.09;66.71;100123.25;5022062;28;20471;-44
2022/04/25 00:52:56;;;;;;;7.05;2.80;;;;;;;7.09;66.09;100118.13;5023783;28;20058;-40
2022/04/25 00:55:23;;;;;;;10.48;3.58;;;;;;;7.12;66.71;100119.88;5011354;28;20057;-47
2022/04/25 00:57:52;;;;;;;12.02;3.22;;;;;;;7.14;66.53;100121.63;5027748;28;20046;-42
2022/04/25 01:00:19;;;;;;;7.38;2.92;;;;;;;7.17;67.49;100126.78;5024694;28;20045;-41
2022/04/25 01:02:45;;;;;;;11.23;2.88;;;;;;;7.20;66.86;100120.84;5024804;28;20049;-41
2022/04/25 01:05:12;;;;;;;8.88;2.80;;;;;;;7.23;67.26;100125.16;5027767;28;20065;-46
2022/04/25 01:07:39;;;;;;;8.18;3.08;;;;;;;7.24;66.93;100127.75;5024295;28;20053;-44
2022/04/25 01:10:08;;;;;;;11.32;3.53;;;;;;;7.27;65.86;100124.34;5024300;28;20042;-44
2022/04/25 01:12:34;;;;;;;12.57;3.25;;;;;;;7.30;66.54;100124.41;5026734;28;20042;-41
2022/04/25 01:15:05;;;;;;;10.55;3.10;;;;;;;7.31;67.65;100124.41;5025030;28;20045;-44
2022/04/25 01:17:31;;;;;;;;;;;;;;;7.27;68.19;100121.78;5008090;28;20053;-44
2022/04/25 01:19:59;;;;;;;9.00;2.78;;;;;;;7.33;67.17;100119.28;5026892;28;19925;-46
2022/04/25 01:22:35;;;;;;;12.00;3.05;;;;;;;7.36;67.05;100121.88;5024056;28;20061;-41
2022/04/25 01:27:48;;;;;;;8.15;2.30;;;;;;;7.39;67.65;100111.59;5015410;28;20049;-49
2022/04/25 01:30:15;;;;;;;8.85;2.78;;;;;;;7.42;65.81;100108.19;5026220;28;20098;-49
2022/04/25 01:32:42;;;;;;;3.78;2.13;;;;;;;7.43;66.06;100110.78;5022419;28;20544;-42
2022/04/25 01:35:08;;;;;;;7.25;2.35;;;;;;;7.44;66.73;100109.94;5026267;28;20049;-43
2022/04/25 01:37:35;;;;;;;9.80;2.30;;;;;;;7.44;66.91;100103.94;5021591;28;20064;-43
2022/04/25 01:40:02;;;;;;;7.38;2.58;;;;;;;7.41;67.99;100103.91;5022830;28;20164;-48
2022/04/25 01:42:29;;;;;;;7.68;2.10;;;;;;;7.41;66.83;100104.78;5008820;28;20054;-43
2022/04/25 01:44:56;;;;;;;7.95;2.45;;;;;;;7.40;67.42;100097.88;5025890;28;20045;-45
2022/04/25 01:47:22;;;;;;;13.25;2.63;;;;;;;7.40;67.25;100108.16;5023536;28;20053;-49
2022/04/25 01:49:49;;;;;;;6.97;1.85;;;;;;;7.38;66.69;100098.69;5025833;28;20088;-43
2022/04/25 01:52:23;;;;;;;7.97;2.95;;;;;;;7.39;67.92;100096.16;5022805;28;20049;-50
2022/04/25 01:54:50;;;;;;;9.02;2.08;;;;;;;7.38;67.35;100096.13;5024772;28;20049;-46
2022/04/25 01:57:17;;;;;;;6.32;2.17;;;;;;;7.38;66.46;100099.56;5023409;28;20061;-47
2022/04/25 01:59:45;;;;;;;10.52;2.75;;;;;;;7.39;65.91;100103.88;5024392;28;20037;-43
2022/04/25 02:02:13;;;;;;;12.43;2.08;;;;;;;7.35;67.22;100099.53;5017619;28;20472;-45
2022/04/25 02:04:40;;;;;;;8.45;1.63;;;;;;;7.38;67.11;100096.13;5024799;28;20097;-44
2022/04/25 02:07:08;;;;;;;5.65;1.38;;;;;;;7.31;67.29;100101.22;5025442;28;20045;-45
2022/04/25 02:09:37;;;;;;;5.60;1.60;;;;;;;7.31;66.83;100100.34;5002611;28;20041;-42
2022/04/25 02:12:04;;;;;;;5.28;2.83;;;;;;;7.30;66.38;100098.63;5023932;28;20193;-45
2022/04/25 02:14:31;;;;;;;4.80;1.40;;;;;;;7.33;65.84;100103.81;5024954;28;20492;-45
2022/04/25 02:16:59;;;;;;;9.15;1.70;;;;;;;7.31;66.86;100092.63;5023231;28;20044;-44
2022/04/25 02:19:27;;;;;;;4.90;1.25;;;;;;;7.31;65.15;100095.19;5025761;28;20053;-43
2022/04/25 02:21:54;;;;;;;5.10;1.52;;;;;;;7.27;65.86;100093.44;5027051;28;20079;-45
2022/04/25 02:24:21;;;;;;;9.90;1.50;;;;;;;7.28;65.89;100090.00;5026726;28;20131;-45
2022/04/25 02:26:48;;;;;;;7.47;1.70;;;;;;;7.27;66.01;100096.00;5025318;28;20065;-42
2022/04/25 02:29:15;;;;;;;3.95;1.55;;;;;;;7.23;65.94;100095.09;5024170;28;20887;-43
2022/04/25 02:31:42;;;;;;;4.55;2.30;;;;;;;7.23;65.88;100089.09;5025894;28;20447;-43
2022/04/25 02:34:09;;;;;;;6.40;1.48;;;;;;;7.22;66.08;100100.25;5022876;28;20115;-47
2022/04/25 02:36:36;;;;;;;5.00;1.40;;;;;;;7.19;64.82;100088.19;5025173;28;20053;-44
2022/04/25 02:39:03;;;;;;;3.92;1.13;;;;;;;7.20;66.02;100097.66;5023226;28;20642;-43
2022/04/25 02:41:30;;;;;;;6.57;1.17;;;;;;;7.18;65.03;100092.47;5022514;28;20045;-46
2022/04/25 02:43:57;;;;;;;3.30;1.23;;;;;;;7.16;65.10;100089.00;5027602;28;20053;-41
2022/04/25 02:46:23;;;;;;;2.50;0.73;;;;;;;7.15;65.09;100092.44;5006423;28;20481;-42
2022/04/25 02:48:50;;;;;;;4.82;0.82;;;;;;;7.14;65.53;100085.56;5024352;28;20476;-46
2022/04/25 02:51:17;;;;;;;4.03;0.95;;;;;;;7.12;64.97;100082.09;5027588;28;20148;-43
2022/04/25 02:53:44;;;;;;;3.80;1.02;;;;;;;7.10;65.79;100088.97;5024246;28;20050;-49
2022/04/25 02:56:11;;;;;;;6.43;1.05;;;;;;;7.09;65.32;100088.94;5025689;28;20046;-43
2022/04/25 02:58:39;;;;;;;6.43;1.20;;;;;;;7.06;65.54;100082.03;5026003;28;20097;-45
2022/04/25 03:01:06;;;;;;;5.60;1.00;;;;;;;7.02;65.75;100080.25;5024266;28;20099;-45
2022/04/25 03:03:35;;;;;;;5.93;1.00;;;;;;;6.98;63.91;100078.47;5025732;28;20053;-43
2022/04/25 03:06:04;;;;;;;5.80;1.23;;;;;;;6.92;65.23;100074.13;5008484;28;20049;-45
2022/04/25 03:08:31;;;;;;;8.25;1.20;;;;;;;6.90;64.94;100076.69;5027382;28;20131;-42
2022/04/25 03:10:57;;;;;;;5.18;1.33;;;;;;;6.89;65.44;100087.81;5023212;28;20050;-43
2022/04/25 03:13:24;;;;;;;7.25;1.73;;;;;;;6.91;65.00;100082.69;5023398;28;20104;-44
2022/04/25 03:15:51;;;;;;;3.55;1.33;;;;;;;6.90;65.07;100091.28;5027993;28;20115;-42
2022/04/25 03:18:19;;;;;;;7.22;1.33;;;;;;;6.86;65.16;100095.50;5024422;28;20061;-48
2022/04/25 03:20:48;;;;;;;3.15;1.13;;;;;;;6.84;64.41;100091.19;5009542;28;20049;-45
2022/04/25 03:23:16;;;;;;;8.55;1.10;;;;;;;6.82;64.18;100089.47;5025390;28;20716;-44
2022/04/25 03:25:43;;;;;;;2.28;0.65;;;;;;;6.80;64.66;100090.28;5026897;28;20045;-43
2022/04/25 03:28:10;;;;;;;9.65;2.42;;;;;;;6.78;63.54;100085.13;5028147;28;20459;-48
2022/04/25 03:30:37;;;;;;;4.05;1.17;;;;;;;6.74;64.73;100085.91;5027810;28;20052;-43
2022/04/25 03:33:03;;;;;;;6.85;1.23;;;;;;;6.72;64.05;100091.91;5031687;28;20053;-46
2022/04/25 03:35:32;;;;;;;3.00;1.00;;;;;;;6.68;64.62;100088.41;5025802;28;20049;-46
2022/04/25 03:37:59;;;;;;;9.70;1.13;;;;;;;6.65;64.39;100081.50;5023318;28;20542;-41
2022/04/25 03:40:26;;;;;;;4.75;1.02;;;;;;;6.63;64.64;100080.63;5026181;28;20120;-43
2022/04/25 03:42:55;;;;;;;5.10;1.35;;;;;;;6.59;65.39;100086.59;5030679;28;20103;-42
2022/04/25 03:45:22;;;;;;;5.10;1.42;;;;;;;6.54;64.97;100083.94;5025213;28;20049;-41
2022/04/25 03:47:49;;;;;;;5.90;1.17;;;;;;;6.49;64.53;100084.72;5029463;28;20110;-42
2022/04/25 03:50:16;;;;;;;6.10;1.33;;;;;;;6.45;64.17;100088.09;5005859;28;20045;-44
2022/04/25 03:52:45;;;;;;;6.00;1.60;;;;;;;6.40;65.00;100086.31;5023981;28;20472;-48
2022/04/25 03:58:02;;;;;;;14.50;1.60;;;;;;;6.26;64.48;100077.50;5013896;28;20072;-52
2022/04/25 04:00:29;;;;;;;5.25;1.75;;;;;;;6.19;65.57;100088.53;5023210;28;20136;-45
2022/04/25 04:02:58;;;;;;;10.95;1.88;;;;;;;6.12;65.08;100080.72;5029545;28;20108;-44
2022/04/25 04:05:26;;;;;;;12.15;1.63;;;;;;;6.02;66.08;100083.97;5023368;28;20052;-43
2022/04/25 04:07:54;;;;;;;4.97;1.38;;;;;;;5.94;65.47;100082.97;5005215;28;20119;-44
2022/04/25 04:10:21;;;;;;;6.50;1.45;;;;;;;5.89;65.39;100083.75;4999225;28;20046;-47
2022/04/25 04:12:47;;;;;;;6.47;2.20;;;;;;;5.78;66.00;100075.00;5006204;28;20061;-44
2022/04/25 04:15:15;;;;;;;6.88;1.55;;;;;;;5.75;65.48;100087.78;5004675;28;20575;-44
2022/04/25 04:17:43;;;;;;;6.30;1.85;;;;;;;5.69;65.69;100080.84;5024478;28;20099;-41
2022/04/25 04:20:12;;;;;;;6.07;2.00;;;;;;;5.64;66.48;100088.44;5024956;28;20076;-48
2022/04/25 04:22:40;;;;;;;9.70;2.00;;;;;;;5.60;65.82;100091.81;5021565;28;20053;-46
2022/04/25 04:25:11;;;;;;;8.80;2.15;;;;;;;5.57;66.55;100096.03;5024668;28;20045;-44
2022/04/25 04:27:40;;;;;;;9.85;2.15;;;;;;;5.52;66.45;100089.13;5024019;28;20103;-46
2022/04/25 04:30:15;;;;;;;6.25;2.22;;;;;;;5.50;66.52;100095.03;5026911;28;20045;-42
2022/04/25 04:32:42;;;;;;;6.20;1.83;;;;;;;5.43;66.83;100093.22;5026929;28;20121;-44
2022/04/25 04:35:11;;;;;;;6.03;1.77;;;;;;;5.40;67.14;100094.00;5026795;28;20049;-46
2022/04/25 04:37:39;;;;;;;6.68;1.95;;;;;;;5.40;67.00;100088.84;5023626;28;20117;-48
2022/04/25 04:42:55;;;;;;;8.00;2.17;;;;;;;5.32;66.38;100096.44;5013629;28;20045;-41
2022/04/25 04:45:22;;;;;;;7.93;2.47;;;;;;;5.27;67.08;100092.91;5024376;28;20073;-48
2022/04/25 04:47:49;;;;;;;6.85;1.73;;;;;;;5.24;66.75;100097.97;5010483;28;20107;-44
2022/04/25 04:50:16;;;;;;;8.18;2.28;;;;;;;5.21;66.35;100093.66;5009004;28;20053;-45
2022/04/25 04:52:45;;;;;;;6.47;2.10;;;;;;;5.17;66.77;100101.25;5019695;28;20064;-41
2022/04/25 04:55:12;;;;;;;9.90;2.00;;;;;;;5.16;66.48;100110.66;5011164;28;20041;-46
2022/04/25 04:57:40;;;;;;;4.75;1.90;;;;;;;5.15;66.61;100103.78;5022230;28;20057;-42
2022/04/25 05:00:09;;;;;;;8.02;2.13;;;;;;;5.12;66.83;100108.84;5026118;28;20038;-48
2022/04/25 05:02:36;;;;;;;6.43;2.03;;;;;;;5.09;66.98;100114.81;5025071;28;20048;-49
2022/04/25 05:05:04;;;;;;;9.30;2.22;;;;;;;5.10;66.92;100108.81;5028567;28;20111;-45
2022/04/25 05:07:31;;;;;;;6.75;2.85;;;;;;;5.10;66.81;100108.81;5027499;28;20455;-40
2022/04/25 05:09:57;;;;;;;8.35;2.10;;;;;;;5.08;67.29;100113.09;5025875;28;20056;-43
2022/04/25 05:12:27;;;;;;;7.55;2.00;;;;;;;5.07;67.11;100115.63;5025195;28;20056;-42
2022/04/25 05:14:54;;;;;;;6.72;1.98;;;;;;;5.09;66.93;100119.06;5026857;28;20053;-42
2022/04/25 05:17:22;;;;;;;8.48;2.15;;;;;;;5.10;66.78;100121.66;5027371;28;20045;-41
2022/04/25 05:19:49;;;;;;;6.40;2.95;;;;;;;5.11;67.06;100123.41;5024612;28;20431;-44
2022/04/25 05:22:16;;;;;;;8.75;2.22;;;;;;;5.10;67.26;100121.66;5025534;28;21856;-43
2022/04/25 05:24:43;;;;;;;6.18;1.75;;;;;;;5.14;66.60;100118.31;5007159;28;20103;-45
2022/04/25 05:27:10;;;;;;;7.10;2.20;;;;;;;5.20;67.18;100133.00;5025971;28;20492;-41
2022/04/25 05:29:54;;;;;;;6.30;2.25;;;;;;;5.24;67.49;100128.81;5023090;28;20053;-42
2022/04/25 05:32:21;;;;;;;9.43;1.90;;;;;;;5.32;67.71;100124.69;5028174;28;20049;-47
2022/04/25 05:34:47;;;;;;;7.72;2.10;;;;;;;5.45;67.79;100123.22;5026461;28;20057;-43
2022/04/25 05:37:14;;;;;;;8.07;1.50;;;;;;;5.57;67.81;100130.28;5023823;28;20049;-42
2022/04/25 05:39:41;;;;;;;7.57;1.58;;;;;;;5.59;66.99;100131.19;5023830;28;20091;-49
2022/04/25 05:42:08;;;;;;;9.70;1.98;;;;;;;5.57;67.69;100124.31;5025894;28;20107;-47
2022/04/25 05:44:35;;;;;;;8.65;1.60;;;;;;;5.53;67.11;100136.22;5024557;28;20049;-42
2022/04/25 05:47:02;;;;;;;6.30;1.73;;;;;;;5.52;67.10;100144.75;5027661;28;20045;-45
2022/04/25 05:52:15;;;;;;;6.13;2.10;;;;;;;5.54;66.83;100148.22;5010003;28;20613;-44
2022/04/25 05:54:46;;;;;;;4.38;2.08;;;;;;;5.52;67.31;100147.31;5023874;28;20578;-42
2022/04/25 05:57:13;;;;;;;7.43;1.85;;;;;;;5.56;68.21;100145.66;5027706;28;20053;-42
2022/04/25 05:59:40;;;;;;;7.32;2.58;;;;;;;5.61;67.87;100150.06;5025084;28;20053;-46
2022/04/25 06:02:07;;;;;;;6.75;2.33;;;;;;;5.65;68.15;100144.13;5023618;28;20063;-45
2022/04/25 06:04:34;;;;;;;4.47;1.90;;;;;;;5.70;67.59;100144.25;5020195;28;20068;-42
2022/04/25 06:07:04;;;;;;;10.82;1.95;;;;;;;5.82;68.09;100142.72;5027722;28;20051;-42
2022/04/25 06:09:30;;;;;;;10.02;3.33;;;;;;;5.93;67.92;100148.94;5022529;28;20413;-44
2022/04/25 06:11:58;;;;;;;6.57;1.50;;;;;;;5.99;67.72;100153.31;5022784;28;20049;-49
2022/04/25 06:14:24;;;;;;;6.95;1.42;;;;;;;6.03;66.87;100147.41;5025442;28;20049;-46
2022/04/25 06:16:51;;;;;;;7.03;2.47;;;;;;;6.09;67.20;100155.25;5025631;28;20436;-51
2022/04/25 06:19:18;;;;;;;8.82;2.00;;;;;;;6.13;67.00;100159.63;5022791;28;20064;-43
2022/04/25 06:21:45;;;;;;;7.43;1.60;;;;;;;6.20;67.39;100158.00;5019335;28;20049;-41
2022/04/25 06:24:12;;;;;;;13.63;2.00;;;;;;;6.26;67.35;100157.25;5019146;28;20056;-47
2022/04/25 06:26:39;;;;;;;9.00;1.92;;;;;;;6.27;66.46;100153.81;5023833;28;20053;-48
2022/04/25 06:29:05;;;;;;;8.25;1.90;;;;;;;6.34;67.45;100158.22;5022279;28;20050;-43
2022/04/25 06:31:32;;;;;;;5.45;1.80;;;;;;;6.40;67.11;100158.34;5019474;28;20083;-47
2022/04/25 06:33:58;;;;;;;8.52;1.58;;;;;;;6.42;66.31;100161.78;5022169;28;20049;-44
2022/04/25 06:36:25;;;;;;;7.03;1.65;;;;;;;6.45;66.44;100165.28;5015983;28;20053;-41
2022/04/25 06:38:52;;;;;;;6.25;2.05;;;;;;;6.56;65.99;100156.00;5023583;28;20719;-46
2022/04/25 06:41:21;;;;;;;9.95;2.88;;;;;;;6.98;66.80;100166.91;5020264;28;20112;-47
2022/04/25 06:43:48;;;;;;;5.45;2.03;;;;;;;7.53;65.31;100172.78;5002220;28;20061;-51
2022/04/25 06:46:15;;;;;;;5.13;1.73;;;;;;;8.08;65.20;100172.47;5015975;28;20057;-46
2022/04/25 06:49:19;;;;;;;8.15;1.98;;;;;;;8.49;63.93;100171.09;5021385;28;20103;-43
2022/04/25 06:51:29;;;;;;;13.27;1.92;;;;;;;8.51;62.10;100178.00;5014739;28;20052;-43
2022/04/25 06:53:56;;;;;;;6.07;1.58;;;;;;;8.46;62.64;100176.25;5023414;28;20045;-51
2022/04/25 06:56:23;;;;;;;4.95;2.03;;;;;;;8.42;62.25;100174.50;5020793;28;20049;-41
2022/04/25 06:58:50;;;;;;;9.02;2.90;;;;;;;8.41;62.71;100177.06;5022364;28;20045;-50
2022/04/25 07:01:16;;;;;;;7.03;2.15;;;;;;;8.39;63.00;100179.63;5020795;28;20103;-44
2022/04/25 07:03:43;;;;;;;6.57;1.75;;;;;;;8.33;61.93;100167.53;5023044;28;20053;-43
2022/04/25 07:06:10;;;;;;;11.00;1.80;;;;;;;8.25;62.83;100176.06;5023107;28;20504;-47
2022/04/25 07:08:36;;;;;;;6.40;2.33;;;;;;;8.21;63.10;100173.44;5021914;28;20103;-47
2022/04/25 07:11:03;;;;;;;3.97;1.80;;;;;;;8.26;63.14;100167.47;5024838;28;20428;-42
2022/04/25 07:13:30;;;;;;;8.95;3.05;;;;;;;8.42;62.83;100168.47;5020455;28;20256;-43
2022/04/25 07:16:01;;;;;;;4.45;1.33;;;;;;;8.64;62.54;100173.84;5020590;28;20050;-44
2022/04/25 07:18:29;;;;;;;5.85;1.60;;;;;;;8.72;62.73;100175.59;5021234;28;20732;-43
2022/04/25 07:20:56;;;;;;;6.97;1.45;;;;;;;8.66;62.07;100178.16;5021301;28;20076;-43
2022/04/25 07:28:58;;;;;;;10.30;3.33;;;;;;;8.49;62.45;100176.25;5016414;28;20747;-43
2022/04/25 07:31:25;;;;;;;6.35;1.70;;;;;;;8.65;61.61;100171.25;5023182;28;20574;-44
2022/04/25 07:33:56;;;;;;;12.82;1.88;;;;;;;8.96;62.40;100176.63;5023856;28;20065;-46
2022/04/25 07:36:24;;;;;;;8.43;1.58;;;;;;;9.29;61.95;100174.19;5028557;28;20045;-40
2022/04/25 07:38:51;;;;;;;8.23;1.95;;;;;;;10.01;61.87;100180.47;5025870;28;20065;-47
2022/04/25 07:41:17;;;;;;;5.65;1.80;;;;;;;10.79;59.75;100170.16;5021584;28;20049;-46
2022/04/25 07:43:45;;;;;;;5.85;1.60;;;;;;;11.42;59.30;100175.16;5023969;28;20124;-45
2022/04/25 07:46:13;;;;;;;6.20;1.38;;;;;;;11.93;57.09;100181.81;5027836;28;20045;-41
2022/04/25 07:48:40;;;;;;;4.20;1.63;;;;;;;12.47;55.90;100172.78;5028306;28;20581;-45
2022/04/25 07:51:07;;;;;;;9.27;1.80;;;;;;;12.77;55.87;100185.50;5027759;28;20103;-40
2022/04/25 07:53:33;;;;;;;7.32;1.65;;;;;;;12.76;54.54;100184.66;5024641;28;20049;-42
2022/04/25 07:56:00;;;;;;;6.60;1.50;;;;;;;12.65;55.46;100186.47;5027689;28;20053;-42
2022/04/25 07:58:27;;;;;;;6.05;1.70;;;;;;;12.72;54.52;100189.03;5032516;28;20045;-40
2022/04/25 08:00:53;;;;;;;8.38;2.17;;;;;;;12.80;54.80;100186.34;5026036;28;20041;-42
2022/04/25 08:03:25;;;;;;;7.25;1.52;;;;;;;12.89;54.72;100194.91;5027205;28;20053;-45
2022/04/25 08:05:52;;;;;;;5.70;3.30;;;;;;;12.84;53.77;100198.41;5020952;28;20242;-42
2022/04/25 08:08:19;;;;;;;11.73;2.58;;;;;;;12.53;54.04;100198.69;5028075;28;20076;-43
2022/04/25 08:10:45;;;;;;;9.65;1.85;;;;;;;12.18;55.11;100205.03;5029846;28;20544;-43
2022/04/25 08:18:45;;;;;;;4.70;1.65;;;;;;;11.83;55.50;100210.38;5011980;28;20050;-47
2022/04/25 08:21:13;;;;;;;6.63;1.73;;;;;;;11.82;55.94;100213.88;5023123;28;20068;-48
2022/04/25 08:23:41;;;;;;;4.45;1.30;;;;;;;11.81;55.03;100214.75;5022105;28;20049;-46
2022/04/25 08:26:07;;;;;;;5.43;1.73;;;;;;;11.61;55.24;100212.25;5022422;28;20053;-42
2022/04/25 08:28:35;;;;;;;8.60;1.98;;;;;;;11.76;56.21;100211.28;5029516;28;20103;-42
2022/04/25 08:31:22;;;;;;;7.05;1.60;;;;;;;11.72;55.17;100216.53;5024198;28;20053;-45
2022/04/25 08:33:48;;;;;;;8.02;1.65;;;;;;;11.70;56.42;100219.13;5026469;28;20132;-47
2022/04/25 08:36:16;;;;;;;5.50;1.77;;;;;;;11.64;56.04;100217.41;5025616;28;20052;-46
2022/04/25 08:38:43;;;;;;;4.03;1.92;;;;;;;11.56;55.96;100220.03;5022657;28;20057;-41
2022/04/25 08:41:12;;;;;;;4.93;1.70;;;;;;;11.38;55.92;100225.31;5025676;28;20053;-44
2022/04/25 08:43:40;;;;;;;6.30;1.70;;;;;;;11.29;56.95;100226.19;5027286;28;20061;-41
2022/04/25 08:46:11;;;;;;;8.73;1.73;;;;;;;11.24;56.93;100233.97;5028060;28;20053;-48
2022/04/25 08:48:38;;;;;;;6.10;1.90;;;;;;;11.23;56.85;100229.66;5006947;28;21784;-47
2022/04/25 08:51:05;;;;;;;10.90;2.50;;;;;;;11.22;57.18;100233.13;5024686;28;20067;-40
2022/04/25 08:53:34;;;;;;;8.30;2.45;;;;;;;11.27;57.59;100239.16;5029863;28;20056;-42
2022/04/25 08:56:03;;;;;;;4.45;1.85;;;;;;;11.27;56.44;100236.56;5023351;28;20045;-49
2022/04/25 08:58:31;;;;;;;6.53;2.20;;;;;;;11.40;56.76;100239.13;5025808;28;20619;-44
2022/04/25 09:00:59;;;;;;;5.80;3.55;;;;;;;11.46;56.46;100244.31;5021292;28;20442;-49
2022/04/25 09:03:25;;;;;;;5.35;2.30;;;;;;;11.47;55.87;100246.00;5022944;28;20143;-42
2022/04/25 09:05:52;;;;;;;10.48;2.08;;;;;;;11.62;56.53;100239.91;5032643;28;20122;-42
2022/04/25 09:08:19;;;;;;;9.52;2.38;;;;;;;11.69;55.42;100246.78;5029129;28;20053;-44
2022/04/25 09:10:46;;;;;;;7.80;2.15;;;;;;;11.89;55.66;100247.59;5021130;28;20046;-43
2022/04/25 09:13:13;;;;;;;5.13;1.90;;;;;;;12.00;55.94;100248.41;5026135;28;20064;-43
2022/04/25 09:15:40;;;;;;;7.20;1.80;;;;;;;12.07;54.64;100250.13;5026233;28;20167;-51
2022/04/25 09:18:09;;;;;;;4.95;1.60;;;;;;;11.92;55.09;100247.56;5022394;28;20486;-42
2022/04/25 09:20:42;;;;;;;3.97;1.80;;;;;;;11.81;54.69;100245.00;5026321;28;20045;-42
2022/04/25 09:23:24;;;;;;;6.55;2.22;;;;;;;11.71;54.77;100241.59;5023977;28;20045;-45
2022/04/25 09:26:14;;;;;;;5.97;2.00;;;;;;;11.69;55.62;100236.41;5024199;28;20053;-45
2022/04/25 09:28:50;;;;;;;8.40;1.60;;;;;;;11.78;55.33;100253.69;5008287;28;20529;-42
2022/04/25 09:31:18;;;;;;;5.60;2.20;;;;;;;11.79;54.58;100246.78;5018886;28;20052;-49
2022/04/25 09:33:46;;;;;;;5.70;2.25;;;;;;;11.87;55.02;100245.00;5021492;28;20333;-49
2022/04/25 09:36:12;;;;;;;3.28;1.80;;;;;;;11.92;55.39;100252.78;5022909;28;20057;-42
2022/04/25 09:38:41;;;;;;;5.82;1.83;;;;;;;11.98;56.31;100249.25;5016785;28;20053;-46
2022/04/25 09:41:12;;;;;;;6.95;2.10;;;;;;;12.01;54.82;100260.50;5018225;28;20123;-43
2022/04/25 09:43:41;;;;;;;6.18;2.00;;;;;;;12.00;55.50;100256.19;5007321;28;20099;-43
2022/04/25 09:46:09;;;;;;;4.60;1.60;;;;;;;11.96;54.59;100259.66;5019912;28;20633;-43
2022/04/25 09:48:39;;;;;;;4.95;1.83;;;;;;;12.00;54.38;100255.31;5023275;28;20057;-46
2022/04/25 09:51:07;;;;;;;6.28;1.77;;;;;;;12.01;53.37;100257.91;5025961;28;20096;-47
2022/04/25 09:53:54;;;;;;;6.18;2.67;;;;;;;12.04;54.04;100262.22;5008567;28;20111;-43
2022/04/25 09:56:23;;;;;;;3.85;1.65;;;;;;;12.13;53.38;100250.94;5013077;28;20057;-46
2022/04/25 09:59:08;;;;;;;6.25;2.00;;;;;;;12.03;53.38;100256.13;5021528;28;20045;-49
2022/04/25 10:01:37;;;;;;;4.45;1.75;;;;;;;12.15;53.20;100257.84;5018143;28;20057;-44
2022/04/25 10:04:06;;;;;;;5.95;2.25;;;;;;;12.28;54.21;100253.44;5027086;28;20108;-48
2022/04/25 10:06:36;;;;;;;3.50;1.67;;;;;;;12.46;54.39;100252.44;5006756;28;20065;-49
2022/04/25 10:09:05;;;;;;;6.32;1.65;;;;;;;12.52;53.47;100256.75;5016384;28;20520;-46
2022/04/25 10:11:34;;;;;;;5.50;1.90;;;;;;;12.59;53.19;100254.94;5007789;28;20073;-43
2022/04/25 10:14:02;;;;;;;6.10;1.88;;;;;;;12.79;54.25;100252.19;5010959;28;20053;-46
2022/04/25 10:16:31;;;;;;;3.13;1.63;;;;;;;12.84;52.08;100255.59;5022883;28;20501;-42
2022/04/25 10:18:58;;;;;;;4.05;1.80;;;;;;;12.84;52.54;100255.59;5024651;28;20510;-49
2022/04/25 10:21:29;;;;;;;4.63;1.77;;;;;;;12.91;52.58;100271.16;5021451;28;20045;-43
2022/04/25 10:23:57;;;;;;;6.85;1.92;;;;;;;12.85;51.67;100267.75;5022474;28;20057;-44
2022/04/25 10:26:26;;;;;;;4.00;1.83;;;;;;;12.92;52.00;100267.69;5022066;28;20111;-50
2022/04/25 10:28:56;;;;;;;4.70;2.92;;;;;;;13.05;52.38;100271.91;5029534;28;20445;-43
2022/04/25 10:34:00;;;;;;;7.15;2.55;;;;;;;13.39;51.78;100267.22;5095433;27;20492;-44
2022/04/25 10:36:45;;;;;;;5.90;2.75;;;;;;;13.54;51.51;100271.44;5076100;28;20446;-45
2022/04/25 10:39:18;;;;;;;7.75;2.60;;;;;;;13.69;51.44;100271.25;5075851;28;20134;-44
2022/04/25 10:47:21;;;;;;;8.65;3.88;;;;;;;13.94;50.25;100270.06;5062234;27;20135;-43
2022/04/25 10:55:19;;;;;;;6.05;2.58;;;;;;;14.05;50.40;100273.38;5066052;27;20127;-45
2022/04/25 11:05:52;;;;;;;5.50;3.72;;;;;;;14.51;49.22;100276.22;5038152;27;20128;-44
2022/04/25 11:13:35;;;;;;;5.65;2.58;;;;;;;14.34;49.04;100279.94;5069246;27;20126;-44
2022/04/25 11:19:32;;;;;;;4.75;2.58;;;;;;;14.39;49.66;100277.28;5096492;27;20134;-46
2022/04/25 11:32:23;;;;;;;8.23;2.50;;;;;;;15.14;48.54;100263.88;5084431;27;20124;-48
2022/04/25 11:34:51;;;;;;;9.95;2.95;;;;;;;15.13;48.69;100264.78;5058056;28;20048;-44
2022/04/25 11:37:19;;;;;;;8.52;2.40;;;;;;;15.00;48.70;100269.34;5072551;28;20052;-44
2022/04/25 11:40:05;;;;;;;7.63;2.78;;;;;;;14.77;47.56;100261.94;5059462;28;20651;-51
2022/04/25 11:42:34;;;;;;;8.35;2.50;;;;;;;14.55;48.14;100270.06;5069416;28;20968;-41
2022/04/25 11:45:04;;;;;;;4.65;2.45;;;;;;;14.39;49.06;100267.69;5056876;28;20048;-47
2022/04/25 11:47:31;;;;;;;6.80;2.78;;;;;;;14.29;49.03;100266.13;5058716;28;20773;-41
2022/04/25 11:50:03;;;;;;;8.60;3.30;;;;;;;14.24;49.70;100268.81;5041111;28;20093;-42
2022/04/25 11:52:30;;;;;;;6.68;2.67;;;;;;;14.29;49.36;100271.34;5077638;28;21312;-45
2022/04/25 11:55:16;;;;;;;5.82;2.15;;;;;;;14.35;49.71;100279.06;5069264;28;20297;-43
2022/04/25 11:57:43;;;;;;;8.27;2.67;;;;;;;14.49;48.57;100270.19;5070789;28;20044;-45
2022/04/25 12:00:13;;;;;;;5.68;2.47;;;;;;;14.65;49.57;100269.06;5070508;28;20438;-48
2022/04/25 12:02:41;;;;;;;38.13;4.78;;;;;;;14.71;48.57;100277.66;5072289;28;20048;-43
2022/04/25 12:05:09;;;;;;;4.80;2.55;;;;;;;14.69;48.27;100276.81;5072908;28;20072;-44
2022/04/25 12:07:37;;;;;;;6.05;2.70;;;;;;;14.77;49.53;100278.44;5057586;28;20048;-42
2022/04/25 12:15:40;;;;;;;4.07;2.67;;;;;;;15.66;47.66;100278.59;5043940;28;20439;-46
2022/04/25 12:26:19;;;;;;;4.70;3.38;;;;;;;15.59;45.64;100285.69;5061365;27;20127;-46
2022/04/25 12:28:51;;;;;;;6.55;3.20;;;;;;;15.37;45.27;100291.31;5040549;28;20042;-46
2022/04/25 12:31:19;;;;;;;15.40;4.05;;;;;;;15.24;45.74;100287.22;5058168;28;20173;-47
2022/04/25 12:33:48;;;;;;;4.75;3.08;;;;;;;15.27;46.20;100282.78;5057184;28;20494;-47
2022/04/25 12:36:19;;;;;;;4.00;2.53;;;;;;;15.29;45.32;100280.16;5058106;28;20053;-45
2022/04/25 13:10:16;;;;;;;3.85;1.80;;;;;;;16.50;42.56;100275.94;5061040;27;20488;-43
2022/04/25 13:12:45;;;;;;;5.70;1.70;;;;;;;16.69;42.84;100271.97;5034976;28;20056;-44
2022/04/25 13:15:15;;;;;;;6.82;2.60;;;;;;;16.65;42.86;100287.78;5045489;28;20106;-46
2022/04/25 13:17:42;;;;;;;4.35;1.95;;;;;;;16.36;43.73;100284.97;5036244;28;20182;-41
2022/04/25 13:20:12;;;;;;;6.65;2.10;;;;;;;16.09;43.15;100282.09;5044506;28;20082;-43
2022/04/25 13:22:39;;;;;;;4.47;2.40;;;;;;;15.87;43.76;100282.50;5041913;28;20055;-45